sensor_id;sensor_type;location;lat;lon;timestamp;P1;durP1;ratioP1;P2;durP2;ratioP2
38843;SDS011;24596;48.080;8.362;2023-12-20T00:02:10;0.80;;;0.50;;
38843;SDS011;24596;48.080;8.362;2023-12-20T00:04:35;0.22;;;0.22;;
38843;SDS011;24596;48.080;8.362;2023-12-20T00:07:01;1.40;;;0.60;;
38843;SDS011;24596;48.080;8.362;2023-12-20T00:09:26;0.57;;;0.50;;
38843;SDS011;24596;48.080;8.362;2023-12-20T00:11:54;0.40;;;0.40;;
38843;SDS011;24596;48.080;8.362;2023-12-20T00:14:19;0.65;;;0.50;;
38843;SDS011;24596;48.080;8.362;2023-12-20T00:16:45;0.45;;;0.43;;
38843;SDS011;24596;48.080;8.362;2023-12-20T00:19:13;0.52;;;0.50;;
38843;SDS011;24596;48.080;8.362;2023-12-20T00:21:39;1.05;;;0.50;;
38843;SDS011;24596;48.080;8.362;2023-12-20T00:24:04;0.50;;;0.40;;
38843;SDS011;24596;48.080;8.362;2023-12-20T00:26:30;0.55;;;0.45;;
38843;SDS011;24596;48.080;8.362;2023-12-20T00:29:04;0.63;;;0.40;;
38843;SDS011;24596;48.080;8.362;2023-12-20T00:31:29;1.00;;;0.40;;
38843;SDS011;24596;48.080;8.362;2023-12-20T00:34:06;0.93;;;0.50;;
38843;SDS011;24596;48.080;8.362;2023-12-20T00:36:32;1.00;;;0.40;;
38843;SDS011;24596;48.080;8.362;2023-12-20T00:38:57;1.08;;;0.98;;
38843;SDS011;24596;48.080;8.362;2023-12-20T00:41:25;2.00;;;0.50;;
38843;SDS011;24596;48.080;8.362;2023-12-20T00:43:55;0.63;;;0.50;;
38843;SDS011;24596;48.080;8.362;2023-12-20T00:46:21;2.65;;;0.80;;
38843;SDS011;24596;48.080;8.362;2023-12-20T00:48:55;0.40;;;0.40;;
38843;SDS011;24596;48.080;8.362;2023-12-20T00:51:22;0.85;;;0.47;;
38843;SDS011;24596;48.080;8.362;2023-12-20T00:53:49;1.77;;;0.50;;
38843;SDS011;24596;48.080;8.362;2023-12-20T00:56:15;0.88;;;0.50;;
38843;SDS011;24596;48.080;8.362;2023-12-20T00:58:40;0.55;;;0.45;;
38843;SDS011;24596;48.080;8.362;2023-12-20T01:01:05;0.70;;;0.43;;
38843;SDS011;24596;48.080;8.362;2023-12-20T01:03:30;1.05;;;0.70;;
38843;SDS011;24596;48.080;8.362;2023-12-20T01:05:56;0.75;;;0.52;;
38843;SDS011;24596;48.080;8.362;2023-12-20T01:08:21;0.43;;;0.30;;
38843;SDS011;24596;48.080;8.362;2023-12-20T01:10:46;0.47;;;0.40;;
38843;SDS011;24596;48.080;8.362;2023-12-20T01:13:11;0.65;;;0.40;;
38843;SDS011;24596;48.080;8.362;2023-12-20T01:15:37;0.50;;;0.40;;
38843;SDS011;24596;48.080;8.362;2023-12-20T01:18:02;0.82;;;0.52;;
38843;SDS011;24596;48.080;8.362;2023-12-20T01:20:27;0.30;;;0.30;;
38843;SDS011;24596;48.080;8.362;2023-12-20T01:22:52;1.00;;;0.45;;
38843;SDS011;24596;48.080;8.362;2023-12-20T01:25:18;2.85;;;0.50;;
38843;SDS011;24596;48.080;8.362;2023-12-20T01:27:44;0.65;;;0.40;;
38843;SDS011;24596;48.080;8.362;2023-12-20T01:30:09;0.80;;;0.60;;
38843;SDS011;24596;48.080;8.362;2023-12-20T01:32:34;1.23;;;0.43;;
38843;SDS011;24596;48.080;8.362;2023-12-20T01:34:59;1.50;;;0.40;;
38843;SDS011;24596;48.080;8.362;2023-12-20T01:37:24;0.55;;;0.40;;
38843;SDS011;24596;48.080;8.362;2023-12-20T01:39:51;0.80;;;0.40;;
38843;SDS011;24596;48.080;8.362;2023-12-20T01:42:18;0.30;;;0.30;;
38843;SDS011;24596;48.080;8.362;2023-12-20T01:44:43;0.73;;;0.30;;
38843;SDS011;24596;48.080;8.362;2023-12-20T01:47:16;1.35;;;0.40;;
38843;SDS011;24596;48.080;8.362;2023-12-20T01:49:41;0.20;;;0.20;;
38843;SDS011;24596;48.080;8.362;2023-12-20T01:52:06;0.20;;;0.20;;
38843;SDS011;24596;48.080;8.362;2023-12-20T01:54:33;0.25;;;0.25;;
38843;SDS011;24596;48.080;8.362;2023-12-20T01:56:59;0.20;;;0.20;;
38843;SDS011;24596;48.080;8.362;2023-12-20T01:59:24;0.20;;;0.20;;
38843;SDS011;24596;48.080;8.362;2023-12-20T02:01:49;0.50;;;0.30;;
38843;SDS011;24596;48.080;8.362;2023-12-20T02:04:15;0.20;;;0.20;;
38843;SDS011;24596;48.080;8.362;2023-12-20T02:06:40;0.30;;;0.20;;
38843;SDS011;24596;48.080;8.362;2023-12-20T02:09:06;0.20;;;0.20;;
38843;SDS011;24596;48.080;8.362;2023-12-20T02:11:32;1.08;;;0.30;;
38843;SDS011;24596;48.080;8.362;2023-12-20T02:13:58;0.20;;;0.20;;
38843;SDS011;24596;48.080;8.362;2023-12-20T02:16:23;0.30;;;0.20;;
38843;SDS011;24596;48.080;8.362;2023-12-20T02:18:48;0.28;;;0.28;;
38843;SDS011;24596;48.080;8.362;2023-12-20T02:21:14;0.20;;;0.20;;
38843;SDS011;24596;48.080;8.362;2023-12-20T02:23:39;0.28;;;0.28;;
38843;SDS011;24596;48.080;8.362;2023-12-20T02:26:04;1.13;;;0.20;;
38843;SDS011;24596;48.080;8.362;2023-12-20T02:28:31;0.30;;;0.30;;
38843;SDS011;24596;48.080;8.362;2023-12-20T02:30:57;0.30;;;0.20;;
38843;SDS011;24596;48.080;8.362;2023-12-20T02:33:22;0.20;;;0.20;;
38843;SDS011;24596;48.080;8.362;2023-12-20T02:35:47;0.30;;;0.30;;
38843;SDS011;24596;48.080;8.362;2023-12-20T02:38:12;0.20;;;0.20;;
38843;SDS011;24596;48.080;8.362;2023-12-20T02:40:38;0.45;;;0.20;;
38843;SDS011;24596;48.080;8.362;2023-12-20T02:43:03;0.10;;;0.10;;
38843;SDS011;24596;48.080;8.362;2023-12-20T02:45:28;0.20;;;0.20;;
38843;SDS011;24596;48.080;8.362;2023-12-20T02:47:54;0.40;;;0.30;;
38843;SDS011;24596;48.080;8.362;2023-12-20T02:50:19;0.20;;;0.20;;
38843;SDS011;24596;48.080;8.362;2023-12-20T02:52:44;0.20;;;0.20;;
38843;SDS011;24596;48.080;8.362;2023-12-20T02:55:10;0.17;;;0.17;;
38843;SDS011;24596;48.080;8.362;2023-12-20T02:57:35;0.10;;;0.10;;
38843;SDS011;24596;48.080;8.362;2023-12-20T03:00:01;0.10;;;0.10;;
38843;SDS011;24596;48.080;8.362;2023-12-20T03:02:26;0.13;;;0.13;;
38843;SDS011;24596;48.080;8.362;2023-12-20T03:04:51;0.63;;;0.20;;
38843;SDS011;24596;48.080;8.362;2023-12-20T03:07:16;0.20;;;0.20;;
38843;SDS011;24596;48.080;8.362;2023-12-20T03:09:42;0.22;;;0.20;;
38843;SDS011;24596;48.080;8.362;2023-12-20T03:12:07;0.10;;;0.10;;
38843;SDS011;24596;48.080;8.362;2023-12-20T03:14:32;0.20;;;0.20;;
38843;SDS011;24596;48.080;8.362;2023-12-20T03:16:57;0.20;;;0.20;;
38843;SDS011;24596;48.080;8.362;2023-12-20T03:19:23;0.10;;;0.10;;
38843;SDS011;24596;48.080;8.362;2023-12-20T03:21:48;0.10;;;0.10;;
38843;SDS011;24596;48.080;8.362;2023-12-20T03:24:13;1.13;;;0.25;;
38843;SDS011;24596;48.080;8.362;2023-12-20T03:26:38;0.20;;;0.20;;
38843;SDS011;24596;48.080;8.362;2023-12-20T03:29:04;0.20;;;0.20;;
38843;SDS011;24596;48.080;8.362;2023-12-20T03:31:29;0.25;;;0.20;;
38843;SDS011;24596;48.080;8.362;2023-12-20T03:33:54;0.10;;;0.10;;
38843;SDS011;24596;48.080;8.362;2023-12-20T03:36:20;0.20;;;0.20;;
38843;SDS011;24596;48.080;8.362;2023-12-20T03:38:45;0.30;;;0.30;;
38843;SDS011;24596;48.080;8.362;2023-12-20T03:41:10;0.40;;;0.40;;
38843;SDS011;24596;48.080;8.362;2023-12-20T03:43:36;0.47;;;0.30;;
38843;SDS011;24596;48.080;8.362;2023-12-20T03:46:01;0.32;;;0.28;;
38843;SDS011;24596;48.080;8.362;2023-12-20T03:48:28;0.52;;;0.40;;
38843;SDS011;24596;48.080;8.362;2023-12-20T03:50:53;0.20;;;0.20;;
38843;SDS011;24596;48.080;8.362;2023-12-20T03:53:19;0.28;;;0.20;;
38843;SDS011;24596;48.080;8.362;2023-12-20T03:55:44;0.20;;;0.20;;
38843;SDS011;24596;48.080;8.362;2023-12-20T03:58:09;0.28;;;0.20;;
38843;SDS011;24596;48.080;8.362;2023-12-20T04:00:34;0.20;;;0.20;;
38843;SDS011;24596;48.080;8.362;2023-12-20T04:03:00;0.38;;;0.38;;
38843;SDS011;24596;48.080;8.362;2023-12-20T04:05:25;0.77;;;0.40;;
38843;SDS011;24596;48.080;8.362;2023-12-20T04:07:50;1.77;;;0.52;;
38843;SDS011;24596;48.080;8.362;2023-12-20T04:10:15;0.82;;;0.30;;
38843;SDS011;24596;48.080;8.362;2023-12-20T04:12:41;0.73;;;0.55;;
38843;SDS011;24596;48.080;8.362;2023-12-20T04:15:06;0.70;;;0.50;;
38843;SDS011;24596;48.080;8.362;2023-12-20T04:17:34;2.97;;;0.50;;
38843;SDS011;24596;48.080;8.362;2023-12-20T04:19:59;1.08;;;0.45;;
38843;SDS011;24596;48.080;8.362;2023-12-20T04:22:24;0.82;;;0.50;;
38843;SDS011;24596;48.080;8.362;2023-12-20T04:24:49;0.20;;;0.20;;
38843;SDS011;24596;48.080;8.362;2023-12-20T04:27:15;0.57;;;0.30;;
38843;SDS011;24596;48.080;8.362;2023-12-20T04:29:40;0.20;;;0.20;;
38843;SDS011;24596;48.080;8.362;2023-12-20T04:32:05;0.20;;;0.20;;
38843;SDS011;24596;48.080;8.362;2023-12-20T04:34:30;0.20;;;0.20;;
38843;SDS011;24596;48.080;8.362;2023-12-20T04:36:56;1.13;;;0.30;;
38843;SDS011;24596;48.080;8.362;2023-12-20T04:39:21;0.50;;;0.30;;
38843;SDS011;24596;48.080;8.362;2023-12-20T04:41:46;1.00;;;0.40;;
38843;SDS011;24596;48.080;8.362;2023-12-20T04:44:12;0.17;;;0.17;;
38843;SDS011;24596;48.080;8.362;2023-12-20T04:46:37;0.30;;;0.30;;
38843;SDS011;24596;48.080;8.362;2023-12-20T04:49:03;0.10;;;0.10;;
38843;SDS011;24596;48.080;8.362;2023-12-20T04:51:28;0.40;;;0.30;;
38843;SDS011;24596;48.080;8.362;2023-12-20T04:53:53;0.82;;;0.20;;
38843;SDS011;24596;48.080;8.362;2023-12-20T04:56:18;0.25;;;0.25;;
38843;SDS011;24596;48.080;8.362;2023-12-20T04:58:44;0.30;;;0.30;;
38843;SDS011;24596;48.080;8.362;2023-12-20T05:01:09;0.13;;;0.13;;
38843;SDS011;24596;48.080;8.362;2023-12-20T05:03:35;0.30;;;0.30;;
38843;SDS011;24596;48.080;8.362;2023-12-20T05:06:00;0.43;;;0.20;;
38843;SDS011;24596;48.080;8.362;2023-12-20T05:08:25;0.20;;;0.20;;
38843;SDS011;24596;48.080;8.362;2023-12-20T05:10:51;0.28;;;0.28;;
38843;SDS011;24596;48.080;8.362;2023-12-20T05:13:16;0.35;;;0.35;;
38843;SDS011;24596;48.080;8.362;2023-12-20T05:15:42;0.20;;;0.20;;
38843;SDS011;24596;48.080;8.362;2023-12-20T05:18:07;0.22;;;0.22;;
38843;SDS011;24596;48.080;8.362;2023-12-20T05:20:32;0.98;;;0.30;;
38843;SDS011;24596;48.080;8.362;2023-12-20T05:22:57;0.20;;;0.20;;
38843;SDS011;24596;48.080;8.362;2023-12-20T05:25:22;0.52;;;0.30;;
38843;SDS011;24596;48.080;8.362;2023-12-20T05:27:47;0.30;;;0.30;;
38843;SDS011;24596;48.080;8.362;2023-12-20T05:30:13;1.65;;;0.40;;
38843;SDS011;24596;48.080;8.362;2023-12-20T05:32:38;0.38;;;0.30;;
38843;SDS011;24596;48.080;8.362;2023-12-20T05:35:04;0.20;;;0.20;;
38843;SDS011;24596;48.080;8.362;2023-12-20T05:37:29;0.30;;;0.30;;
38843;SDS011;24596;48.080;8.362;2023-12-20T05:39:54;1.05;;;0.40;;
38843;SDS011;24596;48.080;8.362;2023-12-20T05:42:19;0.73;;;0.50;;
38843;SDS011;24596;48.080;8.362;2023-12-20T05:44:44;0.60;;;0.40;;
38843;SDS011;24596;48.080;8.362;2023-12-20T05:47:10;0.20;;;0.20;;
38843;SDS011;24596;48.080;8.362;2023-12-20T05:49:35;0.35;;;0.32;;
38843;SDS011;24596;48.080;8.362;2023-12-20T05:52:00;0.20;;;0.20;;
38843;SDS011;24596;48.080;8.362;2023-12-20T05:54:25;0.95;;;0.50;;
38843;SDS011;24596;48.080;8.362;2023-12-20T05:56:51;0.50;;;0.50;;
38843;SDS011;24596;48.080;8.362;2023-12-20T05:59:16;0.90;;;0.50;;
38843;SDS011;24596;48.080;8.362;2023-12-20T06:01:41;5.18;;;1.00;;
38843;SDS011;24596;48.080;8.362;2023-12-20T06:04:06;2.45;;;0.77;;
38843;SDS011;24596;48.080;8.362;2023-12-20T06:06:31;1.05;;;0.60;;
38843;SDS011;24596;48.080;8.362;2023-12-20T06:08:57;1.35;;;0.70;;
38843;SDS011;24596;48.080;8.362;2023-12-20T06:11:23;2.53;;;0.90;;
38843;SDS011;24596;48.080;8.362;2023-12-20T06:13:48;1.20;;;0.50;;
38843;SDS011;24596;48.080;8.362;2023-12-20T06:16:16;0.55;;;0.40;;
38843;SDS011;24596;48.080;8.362;2023-12-20T06:18:42;0.90;;;0.63;;
38843;SDS011;24596;48.080;8.362;2023-12-20T06:21:07;0.68;;;0.55;;
38843;SDS011;24596;48.080;8.362;2023-12-20T06:23:33;0.70;;;0.55;;
38843;SDS011;24596;48.080;8.362;2023-12-20T06:25:58;2.90;;;0.68;;
38843;SDS011;24596;48.080;8.362;2023-12-20T06:28:23;0.40;;;0.40;;
38843;SDS011;24596;48.080;8.362;2023-12-20T06:30:48;2.03;;;0.60;;
38843;SDS011;24596;48.080;8.362;2023-12-20T06:33:14;1.05;;;0.45;;
38843;SDS011;24596;48.080;8.362;2023-12-20T06:35:40;0.93;;;0.43;;
38843;SDS011;24596;48.080;8.362;2023-12-20T06:38:05;1.63;;;0.70;;
38843;SDS011;24596;48.080;8.362;2023-12-20T06:40:30;1.45;;;0.68;;
38843;SDS011;24596;48.080;8.362;2023-12-20T06:42:55;3.67;;;1.20;;
38843;SDS011;24596;48.080;8.362;2023-12-20T06:45:20;2.78;;;1.10;;
38843;SDS011;24596;48.080;8.362;2023-12-20T06:47:46;3.25;;;1.05;;
38843;SDS011;24596;48.080;8.362;2023-12-20T06:50:11;0.63;;;0.52;;
38843;SDS011;24596;48.080;8.362;2023-12-20T06:52:36;1.77;;;0.57;;
38843;SDS011;24596;48.080;8.362;2023-12-20T06:55:01;5.00;;;0.80;;
38843;SDS011;24596;48.080;8.362;2023-12-20T06:57:26;1.92;;;0.77;;
38843;SDS011;24596;48.080;8.362;2023-12-20T06:59:52;0.95;;;0.50;;
38843;SDS011;24596;48.080;8.362;2023-12-20T07:02:17;2.30;;;0.90;;
38843;SDS011;24596;48.080;8.362;2023-12-20T07:04:43;5.80;;;1.15;;
38843;SDS011;24596;48.080;8.362;2023-12-20T07:07:08;3.13;;;0.98;;
38843;SDS011;24596;48.080;8.362;2023-12-20T07:09:33;5.38;;;1.27;;
38843;SDS011;24596;48.080;8.362;2023-12-20T07:11:58;1.83;;;0.75;;
38843;SDS011;24596;48.080;8.362;2023-12-20T07:14:24;3.03;;;0.95;;
38843;SDS011;24596;48.080;8.362;2023-12-20T07:16:49;3.83;;;1.48;;
38843;SDS011;24596;48.080;8.362;2023-12-20T07:19:14;1.60;;;0.80;;
38843;SDS011;24596;48.080;8.362;2023-12-20T07:21:40;1.27;;;0.85;;
38843;SDS011;24596;48.080;8.362;2023-12-20T07:24:05;0.77;;;0.57;;
38843;SDS011;24596;48.080;8.362;2023-12-20T07:26:30;2.85;;;0.50;;
38843;SDS011;24596;48.080;8.362;2023-12-20T07:28:55;0.50;;;0.50;;
38843;SDS011;24596;48.080;8.362;2023-12-20T07:31:20;0.25;;;0.22;;
38843;SDS011;24596;48.080;8.362;2023-12-20T07:33:46;1.77;;;0.40;;
38843;SDS011;24596;48.080;8.362;2023-12-20T07:36:11;1.27;;;0.55;;
38843;SDS011;24596;48.080;8.362;2023-12-20T07:38:37;0.90;;;0.30;;
38843;SDS011;24596;48.080;8.362;2023-12-20T07:41:02;0.40;;;0.40;;
38843;SDS011;24596;48.080;8.362;2023-12-20T07:43:27;1.10;;;0.65;;
38843;SDS011;24596;48.080;8.362;2023-12-20T07:45:52;0.60;;;0.52;;
38843;SDS011;24596;48.080;8.362;2023-12-20T07:48:18;0.50;;;0.50;;
38843;SDS011;24596;48.080;8.362;2023-12-20T07:50:43;1.00;;;0.40;;
38843;SDS011;24596;48.080;8.362;2023-12-20T07:53:08;0.52;;;0.30;;
38843;SDS011;24596;48.080;8.362;2023-12-20T07:55:33;0.98;;;0.50;;
38843;SDS011;24596;48.080;8.362;2023-12-20T07:57:59;0.50;;;0.40;;
38843;SDS011;24596;48.080;8.362;2023-12-20T08:00:24;0.20;;;0.20;;
38843;SDS011;24596;48.080;8.362;2023-12-20T08:02:50;1.15;;;0.80;;
38843;SDS011;24596;48.080;8.362;2023-12-20T08:05:15;0.98;;;0.70;;
38843;SDS011;24596;48.080;8.362;2023-12-20T08:07:40;0.50;;;0.50;;
38843;SDS011;24596;48.080;8.362;2023-12-20T08:10:05;0.32;;;0.32;;
38843;SDS011;24596;48.080;8.362;2023-12-20T08:12:31;1.58;;;0.50;;
38843;SDS011;24596;48.080;8.362;2023-12-20T08:14:56;0.52;;;0.30;;
38843;SDS011;24596;48.080;8.362;2023-12-20T08:17:22;2.80;;;0.40;;
38843;SDS011;24596;48.080;8.362;2023-12-20T08:19:48;0.77;;;0.60;;
38843;SDS011;24596;48.080;8.362;2023-12-20T08:22:13;0.43;;;0.40;;
38843;SDS011;24596;48.080;8.362;2023-12-20T08:24:38;0.47;;;0.40;;
38843;SDS011;24596;48.080;8.362;2023-12-20T08:27:04;0.80;;;0.50;;
38843;SDS011;24596;48.080;8.362;2023-12-20T08:29:29;1.67;;;0.80;;
38843;SDS011;24596;48.080;8.362;2023-12-20T08:31:55;1.20;;;0.68;;
38843;SDS011;24596;48.080;8.362;2023-12-20T08:34:20;1.63;;;0.88;;
38843;SDS011;24596;48.080;8.362;2023-12-20T08:36:45;2.60;;;1.13;;
38843;SDS011;24596;48.080;8.362;2023-12-20T08:39:10;2.47;;;1.17;;
38843;SDS011;24596;48.080;8.362;2023-12-20T08:41:36;2.53;;;1.33;;
38843;SDS011;24596;48.080;8.362;2023-12-20T08:44:02;1.92;;;1.20;;
38843;SDS011;24596;48.080;8.362;2023-12-20T08:46:27;2.95;;;1.20;;
38843;SDS011;24596;48.080;8.362;2023-12-20T08:48:52;2.30;;;1.35;;
38843;SDS011;24596;48.080;8.362;2023-12-20T08:51:17;4.70;;;1.70;;
38843;SDS011;24596;48.080;8.362;2023-12-20T08:53:44;4.55;;;1.70;;
38843;SDS011;24596;48.080;8.362;2023-12-20T08:56:10;1.80;;;1.00;;
38843;SDS011;24596;48.080;8.362;2023-12-20T08:58:35;1.98;;;1.00;;
38843;SDS011;24596;48.080;8.362;2023-12-20T09:01:01;2.88;;;0.93;;
38843;SDS011;24596;48.080;8.362;2023-12-20T09:03:26;4.05;;;1.65;;
38843;SDS011;24596;48.080;8.362;2023-12-20T09:05:51;3.58;;;1.50;;
38843;SDS011;24596;48.080;8.362;2023-12-20T09:08:16;2.97;;;1.35;;
38843;SDS011;24596;48.080;8.362;2023-12-20T09:10:42;3.58;;;1.73;;
38843;SDS011;24596;48.080;8.362;2023-12-20T09:13:07;2.58;;;1.20;;
38843;SDS011;24596;48.080;8.362;2023-12-20T09:15:32;2.05;;;1.10;;
38843;SDS011;24596;48.080;8.362;2023-12-20T09:17:59;4.00;;;0.80;;
38843;SDS011;24596;48.080;8.362;2023-12-20T09:20:24;1.88;;;0.90;;
38843;SDS011;24596;48.080;8.362;2023-12-20T09:22:49;0.98;;;0.60;;
38843;SDS011;24596;48.080;8.362;2023-12-20T09:25:15;1.25;;;0.60;;
38843;SDS011;24596;48.080;8.362;2023-12-20T09:27:42;1.27;;;0.80;;
38843;SDS011;24596;48.080;8.362;2023-12-20T09:30:07;1.27;;;0.82;;
38843;SDS011;24596;48.080;8.362;2023-12-20T09:32:32;2.13;;;0.90;;
38843;SDS011;24596;48.080;8.362;2023-12-20T09:34:58;1.80;;;1.00;;
38843;SDS011;24596;48.080;8.362;2023-12-20T09:37:25;2.03;;;1.08;;
38843;SDS011;24596;48.080;8.362;2023-12-20T09:39:51;2.38;;;1.20;;
38843;SDS011;24596;48.080;8.362;2023-12-20T09:42:17;4.43;;;1.50;;
38843;SDS011;24596;48.080;8.362;2023-12-20T09:44:46;8.45;;;1.88;;
38843;SDS011;24596;48.080;8.362;2023-12-20T09:47:12;4.03;;;1.83;;
38843;SDS011;24596;48.080;8.362;2023-12-20T09:49:37;4.65;;;1.77;;
38843;SDS011;24596;48.080;8.362;2023-12-20T09:52:02;6.05;;;2.80;;
38843;SDS011;24596;48.080;8.362;2023-12-20T09:54:29;5.13;;;1.98;;
38843;SDS011;24596;48.080;8.362;2023-12-20T09:56:55;5.57;;;2.90;;
38843;SDS011;24596;48.080;8.362;2023-12-20T09:59:21;4.10;;;2.10;;
38843;SDS011;24596;48.080;8.362;2023-12-20T10:01:46;4.25;;;1.55;;
38843;SDS011;24596;48.080;8.362;2023-12-20T10:04:11;7.53;;;2.80;;
38843;SDS011;24596;48.080;8.362;2023-12-20T10:06:43;4.90;;;2.45;;
38843;SDS011;24596;48.080;8.362;2023-12-20T10:09:09;4.25;;;2.20;;
38843;SDS011;24596;48.080;8.362;2023-12-20T10:11:38;4.10;;;1.80;;
38843;SDS011;24596;48.080;8.362;2023-12-20T10:14:04;4.95;;;1.70;;
38843;SDS011;24596;48.080;8.362;2023-12-20T10:16:29;4.60;;;1.98;;
38843;SDS011;24596;48.080;8.362;2023-12-20T10:18:55;5.65;;;1.90;;
38843;SDS011;24596;48.080;8.362;2023-12-20T10:21:21;3.10;;;1.50;;
38843;SDS011;24596;48.080;8.362;2023-12-20T10:23:47;4.10;;;1.70;;
38843;SDS011;24596;48.080;8.362;2023-12-20T10:26:19;3.58;;;1.65;;
38843;SDS011;24596;48.080;8.362;2023-12-20T10:28:46;3.25;;;1.50;;
38843;SDS011;24596;48.080;8.362;2023-12-20T10:31:23;4.30;;;2.00;;
38843;SDS011;24596;48.080;8.362;2023-12-20T10:33:50;3.45;;;1.85;;
38843;SDS011;24596;48.080;8.362;2023-12-20T10:36:15;4.97;;;2.47;;
38843;SDS011;24596;48.080;8.362;2023-12-20T10:38:41;5.05;;;2.38;;
38843;SDS011;24596;48.080;8.362;2023-12-20T10:41:07;3.95;;;2.00;;
38843;SDS011;24596;48.080;8.362;2023-12-20T10:43:33;5.60;;;2.22;;
38843;SDS011;24596;48.080;8.362;2023-12-20T10:46:01;3.72;;;1.75;;
38843;SDS011;24596;48.080;8.362;2023-12-20T10:48:28;5.88;;;1.98;;
38843;SDS011;24596;48.080;8.362;2023-12-20T10:50:55;3.70;;;1.70;;
38843;SDS011;24596;48.080;8.362;2023-12-20T10:53:21;4.60;;;1.88;;
38843;SDS011;24596;48.080;8.362;2023-12-20T10:55:46;7.05;;;1.90;;
38843;SDS011;24596;48.080;8.362;2023-12-20T10:58:13;4.80;;;1.70;;
38843;SDS011;24596;48.080;8.362;2023-12-20T11:00:41;4.50;;;1.70;;
38843;SDS011;24596;48.080;8.362;2023-12-20T11:03:09;4.07;;;1.75;;
38843;SDS011;24596;48.080;8.362;2023-12-20T11:05:43;5.70;;;2.03;;
38843;SDS011;24596;48.080;8.362;2023-12-20T11:08:14;6.03;;;2.22;;
38843;SDS011;24596;48.080;8.362;2023-12-20T11:13:16;4.82;;;1.88;;
38843;SDS011;24596;48.080;8.362;2023-12-20T11:15:42;5.18;;;2.00;;
38843;SDS011;24596;48.080;8.362;2023-12-20T11:18:08;4.88;;;2.33;;
38843;SDS011;24596;48.080;8.362;2023-12-20T11:20:40;5.25;;;2.00;;
38843;SDS011;24596;48.080;8.362;2023-12-20T11:25:44;4.43;;;1.70;;
38843;SDS011;24596;48.080;8.362;2023-12-20T11:28:10;4.28;;;1.80;;
38843;SDS011;24596;48.080;8.362;2023-12-20T11:30:45;3.67;;;1.80;;
38843;SDS011;24596;48.080;8.362;2023-12-20T11:33:11;3.83;;;1.92;;
38843;SDS011;24596;48.080;8.362;2023-12-20T11:35:37;5.85;;;1.85;;
38843;SDS011;24596;48.080;8.362;2023-12-20T11:38:04;5.18;;;1.90;;
38843;SDS011;24596;48.080;8.362;2023-12-20T11:40:32;10.43;;;2.40;;
38843;SDS011;24596;48.080;8.362;2023-12-20T11:42:58;5.30;;;2.17;;
38843;SDS011;24596;48.080;8.362;2023-12-20T11:45:24;5.78;;;2.38;;
38843;SDS011;24596;48.080;8.362;2023-12-20T11:47:50;4.95;;;2.00;;
38843;SDS011;24596;48.080;8.362;2023-12-20T11:50:16;7.13;;;2.05;;
38843;SDS011;24596;48.080;8.362;2023-12-20T11:52:41;5.65;;;2.08;;
38843;SDS011;24596;48.080;8.362;2023-12-20T11:55:06;5.43;;;2.20;;
38843;SDS011;24596;48.080;8.362;2023-12-20T11:57:32;5.75;;;2.33;;
38843;SDS011;24596;48.080;8.362;2023-12-20T11:59:57;6.63;;;2.25;;
38843;SDS011;24596;48.080;8.362;2023-12-20T12:02:22;5.90;;;1.88;;
38843;SDS011;24596;48.080;8.362;2023-12-20T12:04:49;5.95;;;1.95;;
38843;SDS011;24596;48.080;8.362;2023-12-20T12:07:15;5.20;;;2.00;;
38843;SDS011;24596;48.080;8.362;2023-12-20T12:09:40;5.90;;;1.83;;
38843;SDS011;24596;48.080;8.362;2023-12-20T12:12:06;9.30;;;1.83;;
38843;SDS011;24596;48.080;8.362;2023-12-20T12:14:32;8.25;;;1.95;;
38843;SDS011;24596;48.080;8.362;2023-12-20T12:16:57;6.28;;;1.90;;
38843;SDS011;24596;48.080;8.362;2023-12-20T12:19:23;6.10;;;2.00;;
38843;SDS011;24596;48.080;8.362;2023-12-20T12:21:48;8.43;;;2.38;;
38843;SDS011;24596;48.080;8.362;2023-12-20T12:24:14;7.47;;;2.00;;
38843;SDS011;24596;48.080;8.362;2023-12-20T12:26:39;5.97;;;2.08;;
38843;SDS011;24596;48.080;8.362;2023-12-20T12:29:07;6.15;;;2.10;;
38843;SDS011;24596;48.080;8.362;2023-12-20T12:31:32;9.00;;;2.00;;
38843;SDS011;24596;48.080;8.362;2023-12-20T12:33:57;5.07;;;1.80;;
38843;SDS011;24596;48.080;8.362;2023-12-20T12:36:22;10.10;;;2.08;;
38843;SDS011;24596;48.080;8.362;2023-12-20T12:38:48;4.82;;;1.70;;
38843;SDS011;24596;48.080;8.362;2023-12-20T12:41:13;9.75;;;2.10;;
38843;SDS011;24596;48.080;8.362;2023-12-20T12:43:40;6.88;;;2.30;;
38843;SDS011;24596;48.080;8.362;2023-12-20T12:46:05;6.55;;;1.92;;
38843;SDS011;24596;48.080;8.362;2023-12-20T12:48:30;4.38;;;1.80;;
38843;SDS011;24596;48.080;8.362;2023-12-20T12:50:56;7.38;;;2.40;;
38843;SDS011;24596;48.080;8.362;2023-12-20T12:53:24;10.70;;;2.05;;
38843;SDS011;24596;48.080;8.362;2023-12-20T12:55:49;7.85;;;1.90;;
38843;SDS011;24596;48.080;8.362;2023-12-20T12:58:14;4.38;;;1.63;;
38843;SDS011;24596;48.080;8.362;2023-12-20T13:00:40;4.97;;;1.58;;
38843;SDS011;24596;48.080;8.362;2023-12-20T13:03:05;3.55;;;1.58;;
38843;SDS011;24596;48.080;8.362;2023-12-20T13:05:30;3.42;;;1.20;;
38843;SDS011;24596;48.080;8.362;2023-12-20T13:07:56;7.03;;;2.05;;
38843;SDS011;24596;48.080;8.362;2023-12-20T13:10:21;9.07;;;1.52;;
38843;SDS011;24596;48.080;8.362;2023-12-20T13:12:47;4.93;;;1.58;;
38843;SDS011;24596;48.080;8.362;2023-12-20T13:15:12;7.45;;;1.15;;
38843;SDS011;24596;48.080;8.362;2023-12-20T13:17:37;7.10;;;1.38;;
38843;SDS011;24596;48.080;8.362;2023-12-20T13:20:03;8.63;;;1.85;;
38843;SDS011;24596;48.080;8.362;2023-12-20T13:22:28;6.65;;;1.85;;
38843;SDS011;24596;48.080;8.362;2023-12-20T13:24:53;11.73;;;1.75;;
38843;SDS011;24596;48.080;8.362;2023-12-20T13:27:19;9.57;;;1.80;;
38843;SDS011;24596;48.080;8.362;2023-12-20T13:29:44;9.98;;;1.67;;
38843;SDS011;24596;48.080;8.362;2023-12-20T13:32:09;6.38;;;1.70;;
38843;SDS011;24596;48.080;8.362;2023-12-20T13:34:34;3.95;;;1.27;;
38843;SDS011;24596;48.080;8.362;2023-12-20T13:37:00;8.43;;;1.50;;
38843;SDS011;24596;48.080;8.362;2023-12-20T13:39:25;4.78;;;1.20;;
38843;SDS011;24596;48.080;8.362;2023-12-20T13:41:50;6.20;;;1.55;;
38843;SDS011;24596;48.080;8.362;2023-12-20T13:44:15;6.00;;;1.55;;
38843;SDS011;24596;48.080;8.362;2023-12-20T13:46:41;6.90;;;1.88;;
38843;SDS011;24596;48.080;8.362;2023-12-20T13:49:06;6.80;;;1.77;;
38843;SDS011;24596;48.080;8.362;2023-12-20T13:51:31;9.90;;;2.00;;
38843;SDS011;24596;48.080;8.362;2023-12-20T13:53:57;6.20;;;1.70;;
38843;SDS011;24596;48.080;8.362;2023-12-20T13:56:22;9.00;;;1.67;;
38843;SDS011;24596;48.080;8.362;2023-12-20T13:58:48;7.63;;;1.80;;
38843;SDS011;24596;48.080;8.362;2023-12-20T14:01:13;6.35;;;1.73;;
38843;SDS011;24596;48.080;8.362;2023-12-20T14:03:38;7.00;;;1.60;;
38843;SDS011;24596;48.080;8.362;2023-12-20T14:06:04;13.30;;;1.67;;
38843;SDS011;24596;48.080;8.362;2023-12-20T14:08:29;8.98;;;2.00;;
38843;SDS011;24596;48.080;8.362;2023-12-20T14:10:54;9.82;;;2.60;;
38843;SDS011;24596;48.080;8.362;2023-12-20T14:13:19;14.90;;;2.00;;
38843;SDS011;24596;48.080;8.362;2023-12-20T14:15:45;8.23;;;2.00;;
38843;SDS011;24596;48.080;8.362;2023-12-20T14:18:11;11.07;;;2.33;;
38843;SDS011;24596;48.080;8.362;2023-12-20T14:20:39;4.57;;;1.35;;
38843;SDS011;24596;48.080;8.362;2023-12-20T14:23:05;6.45;;;2.00;;
38843;SDS011;24596;48.080;8.362;2023-12-20T14:25:30;6.53;;;1.40;;
38843;SDS011;24596;48.080;8.362;2023-12-20T14:27:58;6.20;;;1.42;;
38843;SDS011;24596;48.080;8.362;2023-12-20T14:30:24;5.22;;;1.67;;
38843;SDS011;24596;48.080;8.362;2023-12-20T14:32:50;4.43;;;1.23;;
38843;SDS011;24596;48.080;8.362;2023-12-20T14:35:15;5.65;;;1.60;;
38843;SDS011;24596;48.080;8.362;2023-12-20T14:37:40;5.88;;;1.35;;
38843;SDS011;24596;48.080;8.362;2023-12-20T14:40:09;9.07;;;1.20;;
38843;SDS011;24596;48.080;8.362;2023-12-20T14:42:39;8.70;;;1.55;;
38843;SDS011;24596;48.080;8.362;2023-12-20T14:45:05;4.68;;;1.23;;